sensor_id;sensor_type;location;lat;lon;timestamp;pressure;altitude;pressure_sealevel;temperature;humidity
51297;BME280;37380;45.186;9.792;2023-12-20T00:01:08;101343.13;;;0.34;90.11
51297;BME280;37380;45.186;9.792;2023-12-20T00:03:37;101351.59;;;0.20;89.22
51297;BME280;37380;45.186;9.792;2023-12-20T00:06:09;101339.34;;;0.28;89.59
51297;BME280;37380;45.186;9.792;2023-12-20T00:08:37;101335.84;;;0.24;89.58
51297;BME280;37380;45.186;9.792;2023-12-20T00:11:04;101334.31;;;0.23;88.76
51297;BME280;37380;45.186;9.792;2023-12-20T00:13:33;101327.38;;;0.19;89.29
51297;BME280;37380;45.186;9.792;2023-12-20T00:16:01;101319.53;;;0.17;89.40
51297;BME280;37380;45.186;9.792;2023-12-20T00:18:29;101315.03;;;0.07;89.52
51297;BME280;37380;45.186;9.792;2023-12-20T00:20:55;101306.59;;;0.21;90.45
51297;BME280;37380;45.186;9.792;2023-12-20T00:23:23;101292.91;;;0.21;90.97
51297;BME280;37380;45.186;9.792;2023-12-20T00:25:51;101282.91;;;0.11;89.76
51297;BME280;37380;45.186;9.792;2023-12-20T00:28:18;101275.16;;;0.06;89.75
51297;BME280;37380;45.186;9.792;2023-12-20T00:30:45;101274.81;;;0.04;89.75
51297;BME280;37380;45.186;9.792;2023-12-20T00:33:13;101275.03;;;0.13;89.79
51297;BME280;37380;45.186;9.792;2023-12-20T00:35:41;101264.53;;;0.31;90.72
51297;BME280;37380;45.186;9.792;2023-12-20T00:38:08;101256.13;;;0.42;91.84
51297;BME280;37380;45.186;9.792;2023-12-20T00:40:35;101249.69;;;0.52;90.97
51297;BME280;37380;45.186;9.792;2023-12-20T00:43:02;101247.31;;;0.11;88.98
51297;BME280;37380;45.186;9.792;2023-12-20T00:45:29;101248.81;;;0.12;89.43
51297;BME280;37380;45.186;9.792;2023-12-20T00:47:57;101232.03;;;0.10;89.08
51297;BME280;37380;45.186;9.792;2023-12-20T00:50:28;101234.63;;;-0.03;88.84
51297;BME280;37380;45.186;9.792;2023-12-20T00:52:56;101247.81;;;0.03;89.21
51297;BME280;37380;45.186;9.792;2023-12-20T00:55:23;101245.75;;;-0.13;89.22
51297;BME280;37380;45.186;9.792;2023-12-20T00:57:51;101242.66;;;0.08;88.83
51297;BME280;37380;45.186;9.792;2023-12-20T01:00:20;101233.88;;;-0.03;88.83
51297;BME280;37380;45.186;9.792;2023-12-20T01:02:48;101227.44;;;0.07;89.08
51297;BME280;37380;45.186;9.792;2023-12-20T01:05:18;101226.13;;;-0.08;88.56
51297;BME280;37380;45.186;9.792;2023-12-20T01:07:46;101220.69;;;-0.12;89.01
51297;BME280;37380;45.186;9.792;2023-12-20T01:10:14;101220.94;;;-0.26;88.96
51297;BME280;37380;45.186;9.792;2023-12-20T01:12:43;101212.03;;;-0.30;88.96
51297;BME280;37380;45.186;9.792;2023-12-20T01:15:11;101213.03;;;-0.20;89.72
51297;BME280;37380;45.186;9.792;2023-12-20T01:17:38;101210.78;;;-0.25;89.80
51297;BME280;37380;45.186;9.792;2023-12-20T01:20:05;101217.72;;;-0.21;90.08
51297;BME280;37380;45.186;9.792;2023-12-20T01:22:33;101222.84;;;0.00;90.33
51297;BME280;37380;45.186;9.792;2023-12-20T01:25:02;101231.47;;;-0.01;91.06
51297;BME280;37380;45.186;9.792;2023-12-20T01:27:30;101230.59;;;-0.18;90.24
51297;BME280;37380;45.186;9.792;2023-12-20T01:29:58;101227.78;;;-0.14;90.38
51297;BME280;37380;45.186;9.792;2023-12-20T01:32:26;101234.94;;;-0.20;90.60
51297;BME280;37380;45.186;9.792;2023-12-20T01:35:07;101233.25;;;-0.14;90.62
51297;BME280;37380;45.186;9.792;2023-12-20T01:37:34;101237.06;;;-0.08;90.34
51297;BME280;37380;45.186;9.792;2023-12-20T01:40:02;101232.06;;;-0.13;90.74
51297;BME280;37380;45.186;9.792;2023-12-20T01:42:29;101227.25;;;-0.06;90.75
51297;BME280;37380;45.186;9.792;2023-12-20T01:44:56;101219.03;;;-0.06;90.54
51297;BME280;37380;45.186;9.792;2023-12-20T01:47:25;101206.41;;;0.00;90.45
51297;BME280;37380;45.186;9.792;2023-12-20T01:49:54;101205.41;;;-0.09;90.37
51297;BME280;37380;45.186;9.792;2023-12-20T01:52:24;101191.84;;;0.07;90.41
51297;BME280;37380;45.186;9.792;2023-12-20T01:54:53;101185.28;;;0.01;90.30
51297;BME280;37380;45.186;9.792;2023-12-20T01:57:21;101175.53;;;0.00;90.75
51297;BME280;37380;45.186;9.792;2023-12-20T01:59:50;101168.44;;;0.03;90.87
51297;BME280;37380;45.186;9.792;2023-12-20T02:02:17;101160.88;;;0.10;90.93
51297;BME280;37380;45.186;9.792;2023-12-20T02:04:45;101160.97;;;0.26;91.16
51297;BME280;37380;45.186;9.792;2023-12-20T02:07:14;101151.31;;;0.18;90.26
51297;BME280;37380;45.186;9.792;2023-12-20T02:09:42;101150.69;;;0.30;90.21
51297;BME280;37380;45.186;9.792;2023-12-20T02:12:09;101155.75;;;0.32;90.40
51297;BME280;37380;45.186;9.792;2023-12-20T02:14:40;101157.78;;;0.28;90.46
51297;BME280;37380;45.186;9.792;2023-12-20T02:17:07;101157.28;;;0.13;89.75
51297;BME280;37380;45.186;9.792;2023-12-20T02:19:34;101163.72;;;0.03;89.35
51297;BME280;37380;45.186;9.792;2023-12-20T02:22:11;101165.91;;;-0.08;90.02
51297;BME280;37380;45.186;9.792;2023-12-20T02:24:42;101168.47;;;-0.21;89.79
51297;BME280;37380;45.186;9.792;2023-12-20T02:27:11;101164.56;;;-0.20;90.16
51297;BME280;37380;45.186;9.792;2023-12-20T02:29:40;101159.69;;;0.11;91.45
51297;BME280;37380;45.186;9.792;2023-12-20T02:32:07;101165.31;;;0.24;91.87
51297;BME280;37380;45.186;9.792;2023-12-20T02:34:34;101165.78;;;0.38;92.72
51297;BME280;37380;45.186;9.792;2023-12-20T02:37:06;101169.72;;;0.37;92.49
51297;BME280;37380;45.186;9.792;2023-12-20T02:39:33;101164.94;;;0.41;91.87
51297;BME280;37380;45.186;9.792;2023-12-20T02:42:00;101152.09;;;0.38;91.60
51297;BME280;37380;45.186;9.792;2023-12-20T02:44:31;101153.69;;;0.55;91.84
51297;BME280;37380;45.186;9.792;2023-12-20T02:46:59;101152.72;;;0.46;90.28
51297;BME280;37380;45.186;9.792;2023-12-20T02:49:40;101141.53;;;0.56;89.34
51297;BME280;37380;45.186;9.792;2023-12-20T02:52:07;101144.09;;;0.47;88.33
51297;BME280;37380;45.186;9.792;2023-12-20T02:54:35;101137.25;;;0.55;88.58
51297;BME280;37380;45.186;9.792;2023-12-20T02:57:04;101135.44;;;0.29;87.88
51297;BME280;37380;45.186;9.792;2023-12-20T02:59:34;101134.06;;;0.21;88.17
51297;BME280;37380;45.186;9.792;2023-12-20T03:02:02;101122.47;;;0.33;89.44
51297;BME280;37380;45.186;9.792;2023-12-20T03:04:29;101122.47;;;0.33;88.38
51297;BME280;37380;45.186;9.792;2023-12-20T03:07:02;101123.84;;;0.22;88.47
51297;BME280;37380;45.186;9.792;2023-12-20T03:09:30;101115.38;;;0.16;88.33
51297;BME280;37380;45.186;9.792;2023-12-20T03:12:13;101104.78;;;0.18;88.80
51297;BME280;37380;45.186;9.792;2023-12-20T03:14:40;101118.38;;;0.22;89.08
51297;BME280;37380;45.186;9.792;2023-12-20T03:17:09;101117.34;;;0.35;89.71
51297;BME280;37380;45.186;9.792;2023-12-20T03:19:36;101101.53;;;0.43;88.73
51297;BME280;37380;45.186;9.792;2023-12-20T03:22:03;101106.56;;;0.44;89.25
51297;BME280;37380;45.186;9.792;2023-12-20T03:24:30;101111.56;;;0.49;88.50
51297;BME280;37380;45.186;9.792;2023-12-20T03:26:59;101112.59;;;0.55;88.47
51297;BME280;37380;45.186;9.792;2023-12-20T03:29:29;101114.50;;;0.58;88.90
51297;BME280;37380;45.186;9.792;2023-12-20T03:31:56;101106.63;;;0.60;88.09
51297;BME280;37380;45.186;9.792;2023-12-20T03:34:24;101111.88;;;0.87;88.59
51297;BME280;37380;45.186;9.792;2023-12-20T03:36:51;101111.72;;;0.78;87.84
51297;BME280;37380;45.186;9.792;2023-12-20T03:39:18;101103.91;;;0.77;88.37
51297;BME280;37380;45.186;9.792;2023-12-20T03:41:46;101090.97;;;0.77;89.30
51297;BME280;37380;45.186;9.792;2023-12-20T03:44:13;101081.44;;;0.65;88.06
51297;BME280;37380;45.186;9.792;2023-12-20T03:46:44;101088.81;;;0.68;88.21
51297;BME280;37380;45.186;9.792;2023-12-20T03:49:13;101083.38;;;0.49;88.53
51297;BME280;37380;45.186;9.792;2023-12-20T03:51:41;101078.44;;;0.60;88.23
51297;BME280;37380;45.186;9.792;2023-12-20T03:54:10;101079.91;;;0.64;88.25
51297;BME280;37380;45.186;9.792;2023-12-20T03:56:37;101085.41;;;0.64;88.38
51297;BME280;37380;45.186;9.792;2023-12-20T03:59:05;101079.22;;;0.60;88.36
51297;BME280;37380;45.186;9.792;2023-12-20T04:01:33;101088.72;;;0.56;89.60
51297;BME280;37380;45.186;9.792;2023-12-20T04:04:03;101076.47;;;0.60;89.62
51297;BME280;37380;45.186;9.792;2023-12-20T04:06:30;101068.97;;;0.81;89.42
51297;BME280;37380;45.186;9.792;2023-12-20T04:08:58;101058.00;;;0.97;89.38
51297;BME280;37380;45.186;9.792;2023-12-20T04:11:25;101048.84;;;1.19;87.60
51297;BME280;37380;45.186;9.792;2023-12-20T04:13:53;101053.38;;;0.94;87.48
51297;BME280;37380;45.186;9.792;2023-12-20T04:16:20;101047.28;;;0.86;87.61
51297;BME280;37380;45.186;9.792;2023-12-20T04:18:47;101045.31;;;0.87;88.00
51297;BME280;37380;45.186;9.792;2023-12-20T04:21:15;101042.25;;;0.68;88.82
51297;BME280;37380;45.186;9.792;2023-12-20T04:23:42;101037.88;;;0.55;88.98
51297;BME280;37380;45.186;9.792;2023-12-20T04:26:10;101029.72;;;0.67;88.90
51297;BME280;37380;45.186;9.792;2023-12-20T04:28:37;101029.56;;;0.75;88.33
51297;BME280;37380;45.186;9.792;2023-12-20T04:31:04;101020.66;;;0.71;87.87
51297;BME280;37380;45.186;9.792;2023-12-20T04:33:32;101023.72;;;0.73;87.92
51297;BME280;37380;45.186;9.792;2023-12-20T04:36:01;101029.88;;;0.60;88.21
51297;BME280;37380;45.186;9.792;2023-12-20T04:38:29;101030.91;;;0.50;88.44
51297;BME280;37380;45.186;9.792;2023-12-20T04:40:56;101027.94;;;0.61;89.50
51297;BME280;37380;45.186;9.792;2023-12-20T04:43:24;101022.72;;;0.66;88.46
51297;BME280;37380;45.186;9.792;2023-12-20T04:45:51;101030.84;;;0.54;88.59
51297;BME280;37380;45.186;9.792;2023-12-20T04:48:18;101026.97;;;0.51;88.62
51297;BME280;37380;45.186;9.792;2023-12-20T04:50:46;101034.72;;;0.37;88.13
51297;BME280;37380;45.186;9.792;2023-12-20T04:53:13;101046.03;;;0.39;89.46
51297;BME280;37380;45.186;9.792;2023-12-20T04:55:39;101046.81;;;0.39;89.10
51297;BME280;37380;45.186;9.792;2023-12-20T04:58:06;101046.97;;;0.32;88.65
51297;BME280;37380;45.186;9.792;2023-12-20T05:00:33;101052.13;;;0.46;89.15
51297;BME280;37380;45.186;9.792;2023-12-20T05:03:01;101053.34;;;0.45;90.07
51297;BME280;37380;45.186;9.792;2023-12-20T05:05:28;101041.94;;;0.47;89.09
51297;BME280;37380;45.186;9.792;2023-12-20T05:07:55;101042.00;;;0.43;88.74
51297;BME280;37380;45.186;9.792;2023-12-20T05:10:22;101052.13;;;0.46;89.42
51297;BME280;37380;45.186;9.792;2023-12-20T05:12:49;101046.16;;;0.51;89.29
51297;BME280;37380;45.186;9.792;2023-12-20T05:15:16;101049.16;;;0.57;89.19
51297;BME280;37380;45.186;9.792;2023-12-20T05:17:43;101044.97;;;0.68;89.41
51297;BME280;37380;45.186;9.792;2023-12-20T05:20:11;101044.03;;;0.59;88.82
51297;BME280;37380;45.186;9.792;2023-12-20T05:22:38;101037.59;;;0.65;88.90
51297;BME280;37380;45.186;9.792;2023-12-20T05:25:05;101021.94;;;0.66;89.85
51297;BME280;37380;45.186;9.792;2023-12-20T05:27:33;101020.31;;;0.68;89.83
51297;BME280;37380;45.186;9.792;2023-12-20T05:30:00;101026.47;;;0.73;90.08
51297;BME280;37380;45.186;9.792;2023-12-20T05:32:27;101024.84;;;0.75;90.12
51297;BME280;37380;45.186;9.792;2023-12-20T05:34:54;101010.72;;;0.77;89.97
51297;BME280;37380;45.186;9.792;2023-12-20T05:37:21;101016.13;;;0.80;89.61
51297;BME280;37380;45.186;9.792;2023-12-20T05:39:48;101024.16;;;0.71;89.14
51297;BME280;37380;45.186;9.792;2023-12-20T05:42:17;101013.63;;;0.86;89.98
51297;BME280;37380;45.186;9.792;2023-12-20T05:44:44;101008.16;;;0.86;90.27
51297;BME280;37380;45.186;9.792;2023-12-20T05:47:11;101008.06;;;0.89;89.64
51297;BME280;37380;45.186;9.792;2023-12-20T05:49:38;101003.69;;;0.92;89.31
51297;BME280;37380;45.186;9.792;2023-12-20T05:52:06;101001.72;;;0.92;88.86
51297;BME280;37380;45.186;9.792;2023-12-20T05:54:33;100998.72;;;0.87;88.82
51297;BME280;37380;45.186;9.792;2023-12-20T05:57:01;101005.84;;;1.00;89.52
51297;BME280;37380;45.186;9.792;2023-12-20T05:59:27;101004.53;;;0.89;88.54
51297;BME280;37380;45.186;9.792;2023-12-20T06:01:54;101007.88;;;0.96;89.53
51297;BME280;37380;45.186;9.792;2023-12-20T06:04:22;100995.28;;;0.99;88.93
51297;BME280;37380;45.186;9.792;2023-12-20T06:06:49;101005.41;;;1.02;88.62
51297;BME280;37380;45.186;9.792;2023-12-20T06:09:16;101004.09;;;1.06;89.57
51297;BME280;37380;45.186;9.792;2023-12-20T06:11:43;101002.66;;;1.02;89.29
51297;BME280;37380;45.186;9.792;2023-12-20T06:14:10;101006.69;;;0.97;89.04
51297;BME280;37380;45.186;9.792;2023-12-20T06:16:37;101009.16;;;1.08;89.60
51297;BME280;37380;45.186;9.792;2023-12-20T06:19:04;101011.63;;;1.18;89.49
51297;BME280;37380;45.186;9.792;2023-12-20T06:21:32;101007.78;;;1.16;89.12
51297;BME280;37380;45.186;9.792;2023-12-20T06:23:59;100998.78;;;1.15;89.36
51297;BME280;37380;45.186;9.792;2023-12-20T06:26:26;100990.47;;;1.19;89.58
51297;BME280;37380;45.186;9.792;2023-12-20T06:28:53;100996.38;;;1.17;89.50
51297;BME280;37380;45.186;9.792;2023-12-20T06:31:22;100997.25;;;1.14;88.78
51297;BME280;37380;45.186;9.792;2023-12-20T06:33:50;101001.09;;;1.17;89.32
51297;BME280;37380;45.186;9.792;2023-12-20T06:36:24;100992.31;;;1.22;90.53
51297;BME280;37380;45.186;9.792;2023-12-20T06:38:51;101000.41;;;1.13;89.56
51297;BME280;37380;45.186;9.792;2023-12-20T06:41:18;101003.66;;;1.24;90.11
51297;BME280;37380;45.186;9.792;2023-12-20T06:43:49;100998.00;;;1.15;90.47
51297;BME280;37380;45.186;9.792;2023-12-20T06:46:16;100993.97;;;1.48;90.27
51297;BME280;37380;45.186;9.792;2023-12-20T06:48:44;100985.41;;;1.46;89.10
51297;BME280;37380;45.186;9.792;2023-12-20T06:51:17;100988.13;;;1.62;89.69
51297;BME280;37380;45.186;9.792;2023-12-20T06:53:50;100989.25;;;1.49;88.96
51297;BME280;37380;45.186;9.792;2023-12-20T06:56:17;100995.06;;;1.38;88.21
51297;BME280;37380;45.186;9.792;2023-12-20T06:58:46;100984.22;;;1.47;88.88
51297;BME280;37380;45.186;9.792;2023-12-20T07:01:14;100986.84;;;1.51;89.22
51297;BME280;37380;45.186;9.792;2023-12-20T07:03:41;100998.00;;;1.44;88.51
51297;BME280;37380;45.186;9.792;2023-12-20T07:06:10;101001.88;;;1.46;88.65
51297;BME280;37380;45.186;9.792;2023-12-20T07:08:40;101014.91;;;1.42;88.68
51297;BME280;37380;45.186;9.792;2023-12-20T07:11:08;101021.84;;;1.47;89.14
51297;BME280;37380;45.186;9.792;2023-12-20T07:13:35;101032.31;;;1.52;88.81
51297;BME280;37380;45.186;9.792;2023-12-20T07:16:02;101028.56;;;1.74;88.70
51297;BME280;37380;45.186;9.792;2023-12-20T07:18:29;101021.59;;;1.70;88.25
51297;BME280;37380;45.186;9.792;2023-12-20T07:20:56;101031.34;;;1.58;87.80
51297;BME280;37380;45.186;9.792;2023-12-20T07:23:23;101041.72;;;1.51;89.12
51297;BME280;37380;45.186;9.792;2023-12-20T07:25:52;101046.94;;;1.61;89.95
51297;BME280;37380;45.186;9.792;2023-12-20T07:28:19;101042.56;;;1.64;90.08
51297;BME280;37380;45.186;9.792;2023-12-20T07:30:46;101048.50;;;1.62;89.47
51297;BME280;37380;45.186;9.792;2023-12-20T07:33:15;101043.00;;;1.62;89.49
51297;BME280;37380;45.186;9.792;2023-12-20T07:35:45;101046.41;;;1.66;88.89
51297;BME280;37380;45.186;9.792;2023-12-20T07:38:12;101044.91;;;1.78;89.41
51297;BME280;37380;45.186;9.792;2023-12-20T07:40:39;101036.34;;;1.76;88.93
51297;BME280;37380;45.186;9.792;2023-12-20T07:43:06;101030.53;;;1.86;88.83
51297;BME280;37380;45.186;9.792;2023-12-20T07:45:33;101040.13;;;1.94;88.89
51297;BME280;37380;45.186;9.792;2023-12-20T07:48:00;101033.66;;;1.88;88.63
51297;BME280;37380;45.186;9.792;2023-12-20T07:50:27;101036.41;;;2.01;88.18
51297;BME280;37380;45.186;9.792;2023-12-20T07:52:54;101027.34;;;2.17;89.27
51297;BME280;37380;45.186;9.792;2023-12-20T07:55:22;101026.25;;;2.27;88.64
51297;BME280;37380;45.186;9.792;2023-12-20T07:57:49;101029.00;;;2.27;88.25
51297;BME280;37380;45.186;9.792;2023-12-20T08:00:17;101029.88;;;2.36;88.03
51297;BME280;37380;45.186;9.792;2023-12-20T08:02:44;101025.50;;;2.39;88.39
51297;BME280;37380;45.186;9.792;2023-12-20T08:05:11;101023.50;;;2.52;89.20
51297;BME280;37380;45.186;9.792;2023-12-20T08:07:38;101022.09;;;2.60;88.46
51297;BME280;37380;45.186;9.792;2023-12-20T08:10:06;101022.50;;;2.58;88.54
51297;BME280;37380;45.186;9.792;2023-12-20T08:12:33;101013.94;;;2.69;89.16
51297;BME280;37380;45.186;9.792;2023-12-20T08:15:01;101026.69;;;2.76;88.15
51297;BME280;37380;45.186;9.792;2023-12-20T08:17:28;101026.22;;;2.77;88.10
51297;BME280;37380;45.186;9.792;2023-12-20T08:19:56;101035.59;;;2.67;88.74
51297;BME280;37380;45.186;9.792;2023-12-20T08:22:23;101036.03;;;2.65;88.19
51297;BME280;37380;45.186;9.792;2023-12-20T08:24:50;101032.97;;;2.76;89.04
51297;BME280;37380;45.186;9.792;2023-12-20T08:27:17;101027.22;;;2.83;88.82
51297;BME280;37380;45.186;9.792;2023-12-20T08:29:44;101030.63;;;2.87;88.05
51297;BME280;37380;45.186;9.792;2023-12-20T08:32:12;101029.28;;;2.92;88.79
51297;BME280;37380;45.186;9.792;2023-12-20T08:34:39;101020.47;;;2.97;88.11
51297;BME280;37380;45.186;9.792;2023-12-20T08:37:06;101022.47;;;2.96;88.00
51297;BME280;37380;45.186;9.792;2023-12-20T08:39:33;101017.75;;;2.97;88.18
51297;BME280;37380;45.186;9.792;2023-12-20T08:42:00;101019.94;;;3.02;88.32
51297;BME280;37380;45.186;9.792;2023-12-20T08:44:27;101016.16;;;3.08;88.19
51297;BME280;37380;45.186;9.792;2023-12-20T08:46:55;101019.06;;;3.05;87.73
51297;BME280;37380;45.186;9.792;2023-12-20T08:49:24;101014.19;;;3.09;87.42
51297;BME280;37380;45.186;9.792;2023-12-20T08:51:52;101012.53;;;3.11;87.69
51297;BME280;37380;45.186;9.792;2023-12-20T08:54:19;101002.00;;;2.97;87.84
51297;BME280;37380;45.186;9.792;2023-12-20T08:56:46;101002.41;;;3.08;87.65
51297;BME280;37380;45.186;9.792;2023-12-20T08:59:14;101004.59;;;3.13;87.78
51297;BME280;37380;45.186;9.792;2023-12-20T09:01:41;100998.56;;;3.06;87.53
51297;BME280;37380;45.186;9.792;2023-12-20T09:04:08;101000.41;;;3.21;88.60
51297;BME280;37380;45.186;9.792;2023-12-20T09:06:35;101006.88;;;3.27;87.67
51297;BME280;37380;45.186;9.792;2023-12-20T09:09:02;101002.09;;;3.40;87.31
51297;BME280;37380;45.186;9.792;2023-12-20T09:11:32;100997.66;;;3.56;87.12
51297;BME280;37380;45.186;9.792;2023-12-20T09:13:59;100995.38;;;3.63;86.85
51297;BME280;37380;45.186;9.792;2023-12-20T09:16:26;100991.31;;;3.68;86.46
51297;BME280;37380;45.186;9.792;2023-12-20T09:18:53;100982.91;;;3.71;86.36
51297;BME280;37380;45.186;9.792;2023-12-20T09:21:21;100987.53;;;3.74;86.27
51297;BME280;37380;45.186;9.792;2023-12-20T09:23:48;100983.00;;;3.89;86.66
51297;BME280;37380;45.186;9.792;2023-12-20T09:26:15;100983.66;;;3.93;86.32
51297;BME280;37380;45.186;9.792;2023-12-20T09:28:42;100990.03;;;4.12;85.62
51297;BME280;37380;45.186;9.792;2023-12-20T09:31:09;100985.69;;;4.02;85.69
51297;BME280;37380;45.186;9.792;2023-12-20T09:33:36;100993.69;;;4.09;85.44
51297;BME280;37380;45.186;9.792;2023-12-20T09:36:04;100991.19;;;4.02;85.08
51297;BME280;37380;45.186;9.792;2023-12-20T09:38:32;100984.44;;;3.94;86.43
51297;BME280;37380;45.186;9.792;2023-12-20T09:40:59;100971.88;;;3.93;86.75
51297;BME280;37380;45.186;9.792;2023-12-20T09:43:29;100970.59;;;4.16;86.56
51297;BME280;37380;45.186;9.792;2023-12-20T09:46:00;100960.25;;;4.29;86.20
51297;BME280;37380;45.186;9.792;2023-12-20T09:48:30;100965.19;;;4.43;85.82
51297;BME280;37380;45.186;9.792;2023-12-20T09:50:58;100965.00;;;4.37;84.26
51297;BME280;37380;45.186;9.792;2023-12-20T09:53:25;100966.78;;;4.62;83.20
51297;BME280;37380;45.186;9.792;2023-12-20T09:55:59;100964.47;;;4.51;83.53
51297;BME280;37380;45.186;9.792;2023-12-20T09:58:27;100960.19;;;4.50;82.58
51297;BME280;37380;45.186;9.792;2023-12-20T10:00:55;100958.50;;;4.53;82.17
51297;BME280;37380;45.186;9.792;2023-12-20T10:03:25;100963.03;;;4.38;81.28
51297;BME280;37380;45.186;9.792;2023-12-20T10:05:56;100966.91;;;4.49;81.38
51297;BME280;37380;45.186;9.792;2023-12-20T10:08:25;100962.97;;;4.68;81.07
51297;BME280;37380;45.186;9.792;2023-12-20T10:10:52;100956.13;;;4.82;80.21
51297;BME280;37380;45.186;9.792;2023-12-20T10:13:19;100955.34;;;4.91;80.64
51297;BME280;37380;45.186;9.792;2023-12-20T10:15:46;100960.56;;;4.80;79.72
51297;BME280;37380;45.186;9.792;2023-12-20T10:18:14;100957.47;;;4.68;80.79
51297;BME280;37380;45.186;9.792;2023-12-20T10:20:41;100960.78;;;4.54;80.69
51297;BME280;37380;45.186;9.792;2023-12-20T10:23:11;100954.97;;;4.52;81.40
51297;BME280;37380;45.186;9.792;2023-12-20T10:25:39;100956.53;;;4.53;82.15
51297;BME280;37380;45.186;9.792;2023-12-20T10:28:09;100954.09;;;4.64;82.06
51297;BME280;37380;45.186;9.792;2023-12-20T10:30:37;100953.50;;;4.78;81.81
51297;BME280;37380;45.186;9.792;2023-12-20T10:33:08;100943.72;;;4.96;82.71
51297;BME280;37380;45.186;9.792;2023-12-20T10:35:38;100944.63;;;5.38;81.52
51297;BME280;37380;45.186;9.792;2023-12-20T10:38:12;100942.81;;;5.17;81.84
51297;BME280;37380;45.186;9.792;2023-12-20T10:40:42;100942.94;;;5.50;81.17
51297;BME280;37380;45.186;9.792;2023-12-20T10:43:10;100948.00;;;5.33;80.85
51297;BME280;37380;45.186;9.792;2023-12-20T10:45:38;100953.41;;;5.27;80.91
51297;BME280;37380;45.186;9.792;2023-12-20T10:48:05;100950.78;;;5.24;80.90
51297;BME280;37380;45.186;9.792;2023-12-20T10:50:35;100953.84;;;5.17;81.14
51297;BME280;37380;45.186;9.792;2023-12-20T10:53:06;100956.75;;;5.04;81.72
51297;BME280;37380;45.186;9.792;2023-12-20T10:55:33;100957.22;;;5.12;81.24
51297;BME280;37380;45.186;9.792;2023-12-20T10:58:03;100957.38;;;5.17;81.92
51297;BME280;37380;45.186;9.792;2023-12-20T11:00:40;100957.84;;;5.25;82.23
51297;BME280;37380;45.186;9.792;2023-12-20T11:03:11;100952.03;;;5.32;82.58
51297;BME280;37380;45.186;9.792;2023-12-20T11:12:39;100942.88;;;5.95;81.19
51297;BME280;37380;45.186;9.792;2023-12-20T11:14:41;100932.06;;;6.15;80.43
51297;BME280;37380;45.186;9.792;2023-12-20T11:17:10;100919.06;;;6.39;79.91
51297;BME280;37380;45.186;9.792;2023-12-20T11:22:21;100915.25;;;6.60;77.91
51297;BME280;37380;45.186;9.792;2023-12-20T11:24:50;100905.75;;;6.76;76.74
51297;BME280;37380;45.186;9.792;2023-12-20T11:27:18;100903.53;;;6.89;77.43
51297;BME280;37380;45.186;9.792;2023-12-20T11:29:52;100895.03;;;6.69;78.00
51297;BME280;37380;45.186;9.792;2023-12-20T11:34:58;100884.81;;;6.60;79.53
51297;BME280;37380;45.186;9.792;2023-12-20T11:37:30;100883.28;;;6.59;79.52
51297;BME280;37380;45.186;9.792;2023-12-20T11:40:08;100877.56;;;6.63;79.64
51297;BME280;37380;45.186;9.792;2023-12-20T11:42:39;100886.03;;;6.59;79.67
51297;BME280;37380;45.186;9.792;2023-12-20T11:45:13;100881.22;;;6.69;79.68
51297;BME280;37380;45.186;9.792;2023-12-20T11:47:46;100885.22;;;6.68;79.56
51297;BME280;37380;45.186;9.792;2023-12-20T11:50:14;100880.75;;;6.70;78.88
51297;BME280;37380;45.186;9.792;2023-12-20T11:52:41;100883.84;;;6.87;78.26
51297;BME280;37380;45.186;9.792;2023-12-20T11:55:08;100883.41;;;7.03;77.38
51297;BME280;37380;45.186;9.792;2023-12-20T11:57:35;100876.44;;;7.08;77.53
51297;BME280;37380;45.186;9.792;2023-12-20T12:00:03;100868.34;;;7.19;77.88
51297;BME280;37380;45.186;9.792;2023-12-20T12:02:37;100876.31;;;7.26;78.53
51297;BME280;37380;45.186;9.792;2023-12-20T12:05:05;100864.06;;;7.32;77.87
51297;BME280;37380;45.186;9.792;2023-12-20T12:07:33;100857.22;;;7.42;77.80
51297;BME280;37380;45.186;9.792;2023-12-20T12:10:01;100868.47;;;7.54;78.11
51297;BME280;37380;45.186;9.792;2023-12-20T12:12:29;100875.84;;;7.71;77.00
51297;BME280;37380;45.186;9.792;2023-12-20T12:14:57;100870.38;;;7.62;76.03
51297;BME280;37380;45.186;9.792;2023-12-20T12:17:24;100871.69;;;7.96;75.05
51297;BME280;37380;45.186;9.792;2023-12-20T12:20:02;100870.34;;;7.91;76.11
51297;BME280;37380;45.186;9.792;2023-12-20T12:22:31;100864.81;;;7.91;75.37
51297;BME280;37380;45.186;9.792;2023-12-20T12:25:09;100863.19;;;7.85;75.71
51297;BME280;37380;45.186;9.792;2023-12-20T12:27:39;100854.84;;;7.99;75.32
51297;BME280;37380;45.186;9.792;2023-12-20T12:30:06;100853.00;;;8.11;74.37
51297;BME280;37380;45.186;9.792;2023-12-20T12:32:35;100855.22;;;8.07;74.13
51297;BME280;37380;45.186;9.792;2023-12-20T12:35:04;100856.13;;;7.84;75.43
51297;BME280;37380;45.186;9.792;2023-12-20T12:37:40;100844.97;;;7.64;77.40
51297;BME280;37380;45.186;9.792;2023-12-20T12:40:13;100852.41;;;7.72;76.47
51297;BME280;37380;45.186;9.792;2023-12-20T12:42:43;100863.31;;;7.46;77.46
51297;BME280;37380;45.186;9.792;2023-12-20T12:45:11;100849.34;;;7.26;79.21
51297;BME280;37380;45.186;9.792;2023-12-20T12:47:39;100854.13;;;7.40;79.14
51297;BME280;37380;45.186;9.792;2023-12-20T12:50:07;100851.56;;;7.52;78.76
51297;BME280;37380;45.186;9.792;2023-12-20T12:52:34;100844.69;;;7.62;77.91
51297;BME280;37380;45.186;9.792;2023-12-20T12:55:02;100846.97;;;7.63;78.81
51297;BME280;37380;45.186;9.792;2023-12-20T12:57:32;100843.31;;;7.72;77.75
51297;BME280;37380;45.186;9.792;2023-12-20T12:59:59;100834.97;;;7.86;78.12
51297;BME280;37380;45.186;9.792;2023-12-20T13:02:27;100828.84;;;7.97;75.83
51297;BME280;37380;45.186;9.792;2023-12-20T13:04:55;100825.13;;;8.00;76.83
51297;BME280;37380;45.186;9.792;2023-12-20T13:07:23;100828.56;;;7.95;76.78
51297;BME280;37380;45.186;9.792;2023-12-20T13:09:50;100828.28;;;7.93;76.99
51297;BME280;37380;45.186;9.792;2023-12-20T13:12:17;100828.28;;;7.93;77.25
51297;BME280;37380;45.186;9.792;2023-12-20T13:14:44;100804.59;;;7.77;77.69
51297;BME280;37380;45.186;9.792;2023-12-20T13:17:12;100812.59;;;8.04;76.54